createdAt,value
2023-05-25T00:00:32.375Z,939.24
2023-05-25T00:01:32.583Z,939.24
2023-05-25T00:02:32.548Z,939.22
2023-05-25T00:03:32.954Z,939.21
2023-05-25T00:04:32.506Z,939.22
2023-05-25T00:05:32.440Z,939.23
2023-05-25T00:06:32.466Z,939.23
2023-05-25T00:07:32.563Z,939.23
2023-05-25T00:08:32.483Z,939.20
2023-05-25T00:09:32.492Z,939.19
2023-05-25T00:10:32.544Z,939.16
2023-05-25T00:11:32.522Z,939.19
2023-05-25T00:12:32.539Z,939.20
2023-05-25T00:13:32.645Z,939.20
2023-05-25T00:14:32.567Z,939.23
2023-05-25T00:15:32.582Z,939.22
2023-05-25T00:16:32.613Z,939.24
2023-05-25T00:17:32.638Z,939.23
2023-05-25T00:18:32.826Z,939.25
2023-05-25T00:19:32.635Z,939.28
2023-05-25T00:20:32.695Z,939.26
2023-05-25T00:21:32.664Z,939.31
2023-05-25T00:22:32.676Z,939.28
2023-05-25T00:23:32.690Z,939.28
2023-05-25T00:24:32.816Z,939.31
2023-05-25T00:25:32.721Z,939.31
2023-05-25T00:26:32.773Z,939.30
2023-05-25T00:27:32.738Z,939.30
2023-05-25T00:28:32.758Z,939.33
2023-05-25T00:29:32.776Z,939.33
2023-05-25T00:30:32.883Z,939.29
2023-05-25T00:31:32.978Z,939.34
2023-05-25T00:32:32.832Z,939.37
2023-05-25T00:33:32.845Z,939.32
2023-05-25T00:34:32.849Z,939.31
2023-05-25T00:35:32.863Z,939.33
2023-05-25T00:36:32.869Z,939.37
2023-05-25T00:37:32.878Z,939.39
2023-05-25T00:38:32.902Z,939.40
2023-05-25T00:39:32.916Z,939.41
2023-05-25T00:40:32.924Z,939.43
2023-05-25T00:41:32.933Z,939.39
2023-05-25T00:42:32.992Z,939.43
2023-05-25T00:43:32.968Z,939.42
2023-05-25T00:44:32.977Z,939.42
2023-05-25T00:45:32.997Z,939.40
2023-05-25T00:46:33.036Z,939.43
2023-05-25T00:47:33.132Z,939.42
2023-05-25T00:48:33.037Z,939.45
2023-05-25T00:49:33.045Z,939.46
2023-05-25T00:50:33.068Z,939.44
2023-05-25T00:51:33.073Z,939.47
2023-05-25T00:52:33.084Z,939.46
2023-05-25T00:53:33.208Z,939.46
2023-05-25T00:54:33.121Z,939.45
2023-05-25T00:55:33.140Z,939.41
2023-05-25T00:56:33.161Z,939.43
2023-05-25T00:57:33.154Z,939.43
2023-05-25T00:58:33.208Z,939.41
2023-05-25T00:59:33.280Z,939.44
2023-05-25T01:00:33.200Z,939.44
2023-05-25T01:01:33.264Z,939.44
2023-05-25T01:02:33.273Z,939.42
2023-05-25T01:03:33.319Z,939.44
2023-05-25T01:04:33.258Z,939.41
2023-05-25T01:05:33.264Z,939.43
2023-05-25T01:06:33.303Z,939.49
2023-05-25T01:07:33.302Z,939.47
2023-05-25T01:08:33.314Z,939.48
2023-05-25T01:09:33.323Z,939.50
2023-05-25T01:10:33.365Z,939.49
2023-05-25T01:11:33.456Z,939.49
2023-05-25T01:12:33.374Z,939.48
2023-05-25T01:13:33.374Z,939.49
2023-05-25T01:14:33.879Z,939.48
2023-05-25T01:15:33.398Z,939.46
2023-05-25T01:16:33.466Z,939.50
2023-05-25T01:17:33.542Z,939.51
2023-05-25T01:18:33.449Z,939.48
2023-05-25T01:19:33.466Z,939.49
2023-05-25T01:20:33.498Z,939.53
2023-05-25T01:21:33.483Z,939.54
2023-05-25T01:22:33.600Z,939.51
2023-05-25T01:23:33.513Z,939.52
2023-05-25T01:24:33.554Z,939.52
2023-05-25T01:25:33.538Z,939.48
2023-05-25T01:26:33.552Z,939.48
2023-05-25T01:27:33.563Z,939.47
2023-05-25T01:28:33.586Z,939.46
2023-05-25T01:29:33.600Z,939.53
2023-05-25T01:30:33.638Z,939.49
2023-05-25T01:31:33.683Z,939.52
2023-05-25T01:32:33.711Z,939.55
2023-05-25T01:33:33.755Z,939.52
2023-05-25T01:34:33.669Z,939.52
2023-05-25T01:35:33.673Z,939.54
2023-05-25T01:36:33.700Z,939.52
2023-05-25T01:37:33.709Z,939.46
2023-05-25T01:38:33.823Z,939.47
2023-05-25T01:39:33.743Z,939.48
2023-05-25T01:40:33.750Z,939.50
2023-05-25T01:41:33.763Z,939.46
2023-05-25T01:42:33.782Z,939.45
2023-05-25T01:43:33.788Z,939.46
2023-05-25T01:44:33.899Z,939.45
2023-05-25T01:45:33.809Z,939.48
2023-05-25T01:46:33.989Z,939.48
2023-05-25T01:47:33.886Z,939.52
2023-05-25T01:48:33.855Z,939.51
2023-05-25T01:49:33.980Z,939.50
2023-05-25T01:50:33.878Z,939.46
2023-05-25T01:51:33.892Z,939.45
2023-05-25T01:52:33.974Z,939.49
2023-05-25T01:53:33.947Z,939.50
2023-05-25T01:54:33.933Z,939.48
2023-05-25T01:55:34.045Z,939.45
2023-05-25T01:56:33.971Z,939.45
2023-05-25T01:57:33.973Z,939.45
2023-05-25T01:58:34.027Z,939.42
2023-05-25T01:59:33.997Z,939.44
2023-05-25T02:00:34.012Z,939.43
2023-05-25T02:01:34.131Z,939.46
2023-05-25T02:02:34.103Z,939.42
2023-05-25T02:03:34.054Z,939.42
2023-05-25T02:04:34.112Z,939.41
2023-05-25T02:05:34.090Z,939.41
2023-05-25T02:06:34.096Z,939.44
2023-05-25T02:07:34.211Z,939.43
2023-05-25T02:08:34.134Z,939.38
2023-05-25T02:09:34.144Z,939.42
2023-05-25T02:10:34.166Z,939.44
2023-05-25T02:11:34.175Z,939.40
2023-05-25T02:12:34.182Z,939.41
2023-05-25T02:13:34.193Z,939.43
2023-05-25T02:14:34.208Z,939.41
2023-05-25T02:15:34.275Z,939.44
2023-05-25T02:16:34.359Z,939.43
2023-05-25T02:17:34.255Z,939.41
2023-05-25T02:18:34.425Z,939.40
2023-05-25T02:19:34.375Z,939.38
2023-05-25T02:20:34.364Z,939.40
2023-05-25T02:21:34.310Z,939.38
2023-05-25T02:22:34.328Z,939.37
2023-05-25T02:23:34.338Z,939.36
2023-05-25T02:24:34.354Z,939.42
2023-05-25T02:25:34.461Z,939.36
2023-05-25T02:26:34.381Z,939.34
2023-05-25T02:27:34.385Z,939.35
2023-05-25T02:28:34.407Z,939.34
2023-05-25T02:29:34.417Z,939.35
2023-05-25T02:30:34.428Z,939.34
2023-05-25T02:31:34.588Z,939.35
2023-05-25T02:32:34.468Z,939.31
2023-05-25T02:33:34.490Z,939.30
2023-05-25T02:34:34.502Z,939.30
2023-05-25T02:35:34.505Z,939.29
2023-05-25T02:36:34.509Z,939.29
2023-05-25T02:37:34.630Z,939.26
2023-05-25T02:38:34.535Z,939.29
2023-05-25T02:39:34.550Z,939.23
2023-05-25T02:40:34.572Z,939.27
2023-05-25T02:41:34.582Z,939.25
2023-05-25T02:42:34.701Z,939.27
2023-05-25T02:43:34.604Z,939.26
2023-05-25T02:44:34.618Z,939.23
2023-05-25T02:45:34.631Z,939.25
2023-05-25T02:46:34.706Z,939.23
2023-05-25T02:47:34.847Z,939.19
2023-05-25T02:48:34.689Z,939.18
2023-05-25T02:49:34.690Z,939.20
2023-05-25T02:50:34.773Z,939.15
2023-05-25T02:51:34.723Z,939.13
2023-05-25T02:52:34.737Z,939.15
2023-05-25T02:53:34.839Z,939.12
2023-05-25T02:54:34.763Z,939.12
2023-05-25T02:55:34.765Z,939.10
2023-05-25T02:56:34.786Z,939.08
2023-05-25T02:57:34.801Z,939.06
2023-05-25T02:58:35.319Z,939.07
2023-05-25T02:59:34.822Z,939.07
2023-05-25T03:00:34.874Z,939.10
2023-05-25T03:01:35.114Z,939.07
2023-05-25T03:02:34.887Z,939.09
2023-05-25T03:03:35.058Z,939.09
2023-05-25T03:04:34.887Z,939.05
2023-05-25T03:05:34.914Z,939.04
2023-05-25T03:06:35.097Z,939.05
2023-05-25T03:07:34.935Z,939.07
2023-05-25T03:08:34.952Z,939.07
2023-05-25T03:09:34.965Z,939.05
2023-05-25T03:10:34.976Z,939.04
2023-05-25T03:11:34.990Z,939.05
2023-05-25T03:12:34.994Z,939.02
2023-05-25T03:13:35.012Z,939.06
2023-05-25T03:14:35.032Z,939.07
2023-05-25T03:15:35.036Z,939.06
2023-05-25T03:16:35.077Z,939.10
2023-05-25T03:17:35.099Z,939.07
2023-05-25T03:18:35.095Z,939.08
2023-05-25T03:19:35.101Z,939.07
2023-05-25T03:20:35.320Z,939.06
2023-05-25T03:21:35.126Z,939.08
2023-05-25T03:22:35.600Z,939.04
2023-05-25T03:23:35.146Z,939.02
2023-05-25T03:24:35.799Z,939.06
2023-05-25T03:25:35.162Z,939.06
2023-05-25T03:26:35.275Z,939.06
2023-05-25T03:27:35.620Z,939.06
2023-05-25T03:28:35.205Z,939.06
2023-05-25T03:29:35.216Z,939.06
2023-05-25T03:30:35.433Z,939.05
2023-05-25T03:31:35.303Z,939.04
2023-05-25T03:32:35.430Z,939.04
2023-05-25T03:33:35.270Z,939.02
2023-05-25T03:34:35.328Z,939.04
2023-05-25T03:35:35.299Z,939.08
2023-05-25T03:36:35.319Z,939.10
2023-05-25T03:37:35.333Z,939.10
2023-05-25T03:38:35.458Z,939.13
2023-05-25T03:39:35.353Z,939.11
2023-05-25T03:40:35.365Z,939.12
2023-05-25T03:41:35.383Z,939.13
2023-05-25T03:42:35.394Z,939.17
2023-05-25T03:43:35.407Z,939.17
2023-05-25T03:44:35.531Z,939.18
2023-05-25T03:45:35.433Z,939.15
2023-05-25T03:46:35.540Z,939.18
2023-05-25T03:47:35.520Z,939.20
2023-05-25T03:48:35.477Z,939.17
2023-05-25T03:49:35.486Z,939.14
2023-05-25T03:50:35.601Z,939.12
2023-05-25T03:51:35.516Z,939.14
2023-05-25T03:52:35.532Z,939.11
2023-05-25T03:53:35.542Z,939.13
2023-05-25T03:54:35.577Z,939.11
2023-05-25T03:55:35.569Z,939.11
2023-05-25T03:56:35.682Z,939.12
2023-05-25T03:57:35.598Z,939.11
2023-05-25T03:58:35.612Z,939.13
2023-05-25T03:59:35.622Z,939.14
2023-05-25T04:00:35.644Z,939.14
2023-05-25T04:01:35.752Z,939.15
2023-05-25T04:02:35.720Z,939.16
2023-05-25T04:03:36.088Z,939.15
2023-05-25T04:04:35.698Z,939.16
2023-05-25T04:05:35.711Z,939.14
2023-05-25T04:06:35.717Z,939.14
2023-05-25T04:07:35.831Z,939.14
2023-05-25T04:08:35.742Z,939.13
2023-05-25T04:09:35.759Z,939.11
2023-05-25T04:10:35.929Z,939.10
2023-05-25T04:11:35.782Z,939.10
2023-05-25T04:12:35.804Z,939.13
2023-05-25T04:13:35.920Z,939.14
2023-05-25T04:14:35.826Z,939.12
2023-05-25T04:15:35.836Z,939.16
2023-05-25T04:16:35.903Z,939.18
2023-05-25T04:17:37.517Z,939.20
2023-05-25T04:18:35.981Z,939.17
2023-05-25T04:19:35.893Z,939.21
2023-05-25T04:20:36.044Z,939.19
2023-05-25T04:21:35.918Z,939.19
2023-05-25T04:22:35.936Z,939.18
2023-05-25T04:23:35.945Z,939.20
2023-05-25T04:24:36.061Z,939.16
2023-05-25T04:25:35.976Z,939.19
2023-05-25T04:26:36.010Z,939.15
2023-05-25T04:27:36.003Z,939.16
2023-05-25T04:28:36.008Z,939.14
2023-05-25T04:29:36.127Z,939.15
2023-05-25T04:30:36.048Z,939.15
2023-05-25T04:31:36.063Z,939.17
2023-05-25T04:32:36.111Z,939.18
2023-05-25T04:33:36.098Z,939.13
2023-05-25T04:34:36.107Z,939.14
2023-05-25T04:35:36.112Z,939.16
2023-05-25T04:36:36.136Z,939.15
2023-05-25T04:37:36.137Z,939.16
2023-05-25T04:38:36.155Z,939.13
2023-05-25T04:39:36.162Z,939.14
2023-05-25T04:40:36.253Z,939.12
2023-05-25T04:41:36.300Z,939.15
2023-05-25T04:42:36.236Z,939.09
2023-05-25T04:43:36.234Z,939.11
2023-05-25T04:44:36.242Z,939.11
2023-05-25T04:45:36.295Z,939.09
2023-05-25T04:46:36.282Z,939.08
2023-05-25T04:47:36.320Z,939.05
2023-05-25T04:48:36.293Z,939.07
2023-05-25T04:49:36.307Z,939.04
2023-05-25T04:50:36.338Z,939.04
2023-05-25T04:51:36.336Z,939.03
2023-05-25T04:52:36.454Z,939.02
2023-05-25T04:53:36.367Z,938.97
2023-05-25T04:54:36.380Z,938.97
2023-05-25T04:55:36.389Z,939.00
2023-05-25T04:56:36.407Z,938.94
2023-05-25T04:57:36.414Z,938.92
2023-05-25T04:58:36.555Z,938.97
2023-05-25T04:59:36.447Z,938.93
2023-05-25T05:00:36.492Z,938.96
2023-05-25T05:01:36.492Z,938.92
2023-05-25T05:02:36.511Z,938.94
2023-05-25T05:03:36.615Z,938.90
2023-05-25T05:04:36.613Z,938.87
2023-05-25T05:05:36.529Z,938.86
2023-05-25T05:06:36.570Z,938.82
2023-05-25T05:07:36.563Z,938.81
2023-05-25T05:08:36.576Z,938.80
2023-05-25T05:09:36.583Z,938.80
2023-05-25T05:10:36.596Z,938.82
2023-05-25T05:11:36.611Z,938.81
2023-05-25T05:12:36.614Z,938.81
2023-05-25T05:13:36.634Z,938.81
2023-05-25T05:14:36.666Z,938.83
2023-05-25T05:15:36.762Z,938.82
2023-05-25T05:16:36.713Z,938.77
2023-05-25T05:17:36.772Z,938.77
2023-05-25T05:18:36.698Z,938.78
2023-05-25T05:19:36.715Z,938.72
2023-05-25T05:20:36.912Z,938.74
2023-05-25T05:21:36.745Z,938.72
2023-05-25T05:22:36.763Z,938.70
2023-05-25T05:23:36.768Z,938.72
2023-05-25T05:24:36.784Z,938.72
2023-05-25T05:25:36.796Z,938.71
2023-05-25T05:26:48.298Z,938.65
2023-05-25T05:27:36.829Z,938.65
2023-05-25T05:28:36.832Z,938.63
2023-05-25T05:29:36.850Z,938.62
2023-05-25T05:30:36.957Z,938.60
2023-05-25T05:31:36.978Z,938.62
2023-05-25T05:32:36.947Z,938.62
2023-05-25T05:33:36.919Z,938.62
2023-05-25T05:34:36.919Z,938.59
2023-05-25T05:35:36.932Z,938.62
2023-05-25T05:36:48.844Z,938.61
2023-05-25T05:37:37.063Z,938.62
2023-05-25T05:38:39.317Z,938.68
2023-05-25T05:39:36.973Z,938.66
2023-05-25T05:40:36.993Z,938.66
2023-05-25T05:41:37.025Z,938.61
2023-05-25T05:42:37.018Z,938.58
2023-05-25T05:43:37.136Z,938.57
2023-05-25T05:44:37.063Z,938.55
2023-05-25T05:45:37.064Z,938.56
2023-05-25T05:46:37.134Z,938.58
2023-05-25T05:47:37.145Z,938.55
2023-05-25T05:48:37.204Z,938.56
2023-05-25T05:49:37.123Z,938.54
2023-05-25T05:50:37.864Z,938.58
2023-05-25T05:51:37.146Z,938.54
2023-05-25T05:52:37.158Z,938.55
2023-05-25T05:53:37.180Z,938.56
2023-05-25T05:54:37.285Z,938.63
2023-05-25T05:55:37.213Z,938.59
2023-05-25T05:56:37.218Z,938.62
2023-05-25T05:57:37.222Z,938.60
2023-05-25T05:58:37.240Z,938.62
2023-05-25T05:59:37.250Z,938.62
2023-05-25T06:00:37.266Z,938.67
2023-05-25T06:01:37.280Z,938.61
2023-05-25T06:02:39.401Z,938.62
2023-05-25T06:03:37.347Z,938.61
2023-05-25T06:04:37.317Z,938.62
2023-05-25T06:05:37.391Z,938.62
2023-05-25T06:06:37.450Z,938.65
2023-05-25T06:07:37.357Z,938.64
2023-05-25T06:08:37.568Z,938.64
2023-05-25T06:09:37.391Z,938.62
2023-05-25T06:10:37.395Z,938.62
2023-05-25T06:11:37.431Z,938.63
2023-05-25T06:12:37.466Z,938.64
2023-05-25T06:13:37.430Z,938.67
2023-05-25T06:14:37.457Z,938.68
2023-05-25T06:15:37.459Z,938.65
2023-05-25T06:16:37.516Z,938.63
2023-05-25T06:17:37.599Z,938.67
2023-05-25T06:18:37.638Z,938.64
2023-05-25T06:19:37.521Z,938.63
2023-05-25T06:20:37.640Z,938.63
2023-05-25T06:21:37.552Z,938.60
2023-05-25T06:22:37.553Z,938.61
2023-05-25T06:23:37.713Z,938.58
2023-05-25T06:24:37.582Z,938.62
2023-05-25T06:25:37.589Z,938.60
2023-05-25T06:26:37.615Z,938.64
2023-05-25T06:27:37.629Z,938.61
2023-05-25T06:28:37.737Z,938.61
2023-05-25T06:29:37.648Z,938.62
2023-05-25T06:30:37.669Z,938.63
2023-05-25T06:31:37.689Z,938.66
2023-05-25T06:32:37.713Z,938.65
2023-05-25T06:33:37.804Z,938.64
2023-05-25T06:34:38.345Z,938.63
2023-05-25T06:35:37.728Z,938.62
2023-05-25T06:36:37.745Z,938.59
2023-05-25T06:37:37.749Z,938.60
2023-05-25T06:38:37.768Z,938.59
2023-05-25T06:39:37.883Z,938.62
2023-05-25T06:40:37.790Z,938.59
2023-05-25T06:41:37.809Z,938.55
2023-05-25T06:42:37.837Z,938.59
2023-05-25T06:43:37.832Z,938.58
2023-05-25T06:44:37.842Z,938.52
2023-05-25T06:45:37.954Z,938.53
2023-05-25T06:46:37.927Z,938.52
2023-05-25T06:47:37.916Z,938.54
2023-05-25T06:48:37.901Z,938.55
2023-05-25T06:49:37.910Z,938.50
2023-05-25T06:50:37.966Z,938.50
2023-05-25T06:51:37.942Z,938.46
2023-05-25T06:52:37.949Z,938.48
2023-05-25T06:53:37.969Z,938.46
2023-05-25T06:54:37.981Z,938.46
2023-05-25T06:55:37.996Z,938.46
2023-05-25T06:56:38.003Z,938.43
2023-05-25T06:57:38.026Z,938.43
2023-05-25T06:58:38.036Z,938.45
2023-05-25T06:59:38.047Z,938.42
2023-05-25T07:00:38.056Z,938.45
2023-05-25T07:01:38.118Z,938.46
2023-05-25T07:02:38.132Z,938.44
2023-05-25T07:03:38.210Z,938.42
2023-05-25T07:04:38.189Z,938.43
2023-05-25T07:05:38.329Z,938.41
2023-05-25T07:06:38.171Z,938.36
2023-05-25T07:07:38.156Z,938.38
2023-05-25T07:08:38.177Z,938.37
2023-05-25T07:09:38.272Z,938.37
2023-05-25T07:10:38.199Z,938.34
2023-05-25T07:11:38.212Z,938.31
2023-05-25T07:12:38.226Z,938.36
2023-05-25T07:13:38.240Z,938.39
2023-05-25T07:14:38.246Z,938.41
2023-05-25T07:15:38.357Z,938.33
2023-05-25T07:16:38.385Z,938.34
2023-05-25T07:17:38.339Z,938.33
2023-05-25T07:18:38.309Z,938.33
2023-05-25T07:19:38.318Z,938.32
2023-05-25T07:20:38.413Z,938.37
2023-05-25T07:21:38.344Z,938.35
2023-05-25T07:22:38.373Z,938.38
2023-05-25T07:23:38.412Z,938.34
2023-05-25T07:24:38.387Z,938.34
2023-05-25T07:25:38.405Z,938.33
2023-05-25T07:26:38.408Z,938.30
2023-05-25T07:27:38.418Z,938.29
2023-05-25T07:28:38.442Z,938.34
2023-05-25T07:29:38.455Z,938.30
2023-05-25T07:30:38.459Z,938.31
2023-05-25T07:31:38.527Z,938.30
2023-05-25T07:32:38.562Z,938.29
2023-05-25T07:33:38.597Z,938.32
2023-05-25T07:34:38.521Z,938.34
2023-05-25T07:35:38.520Z,938.32
2023-05-25T07:36:38.537Z,938.34
2023-05-25T07:37:38.562Z,938.35
2023-05-25T07:38:38.585Z,938.33
2023-05-25T07:39:38.675Z,938.35
2023-05-25T07:40:38.587Z,938.32
2023-05-25T07:41:38.607Z,938.33
2023-05-25T07:42:38.614Z,938.31
2023-05-25T07:43:38.635Z,938.32
2023-05-25T07:44:38.647Z,938.34
2023-05-25T07:45:38.776Z,938.31
2023-05-25T07:46:38.709Z,938.33
2023-05-25T07:47:38.712Z,938.28
2023-05-25T07:48:38.705Z,938.29
2023-05-25T07:49:38.716Z,938.31
2023-05-25T07:50:38.737Z,938.31
2023-05-25T07:51:38.743Z,938.29
2023-05-25T07:52:38.754Z,938.32
2023-05-25T07:53:38.772Z,938.34
2023-05-25T07:54:38.814Z,938.37
2023-05-25T07:55:38.885Z,938.34
2023-05-25T07:56:38.817Z,938.32
2023-05-25T07:57:38.828Z,938.37
2023-05-25T07:58:38.836Z,938.33
2023-05-25T07:59:38.839Z,938.31
2023-05-25T08:00:38.957Z,938.32
2023-05-25T08:01:38.930Z,938.31
2023-05-25T08:02:38.957Z,938.32
2023-05-25T08:03:49.216Z,938.34
2023-05-25T08:04:39.042Z,938.28
2023-05-25T08:05:38.919Z,938.33
2023-05-25T08:06:39.037Z,938.31
2023-05-25T08:07:40.665Z,938.36
2023-05-25T08:08:38.973Z,938.34
2023-05-25T08:09:38.987Z,938.35
2023-05-25T08:10:39.010Z,938.36
2023-05-25T08:11:39.105Z,938.37
2023-05-25T08:12:49.027Z,938.37
2023-05-25T08:13:39.046Z,938.39
2023-05-25T08:14:39.041Z,938.36
2023-05-25T08:15:39.046Z,938.39
2023-05-25T08:16:39.224Z,938.40
2023-05-25T08:17:39.120Z,938.37
2023-05-25T08:18:39.093Z,938.42
2023-05-25T08:19:39.112Z,938.41
2023-05-25T08:20:39.193Z,938.41
2023-05-25T08:21:39.130Z,938.38
2023-05-25T08:22:39.241Z,938.43
2023-05-25T08:23:39.152Z,938.46
2023-05-25T08:24:39.164Z,938.43
2023-05-25T08:25:39.175Z,938.43
2023-05-25T08:26:53.230Z,938.46
2023-05-25T08:27:39.213Z,938.48
2023-05-25T08:28:39.424Z,938.47
2023-05-25T08:29:39.229Z,938.52
2023-05-25T08:30:39.277Z,938.51
2023-05-25T08:31:39.294Z,938.52
2023-05-25T08:32:39.418Z,938.49
2023-05-25T08:33:39.316Z,938.53
2023-05-25T08:34:39.402Z,938.50
2023-05-25T08:35:39.325Z,938.52
2023-05-25T08:36:39.317Z,938.52
2023-05-25T08:37:39.340Z,938.50
2023-05-25T08:38:39.354Z,938.53
2023-05-25T08:39:39.365Z,938.52
2023-05-25T08:40:39.580Z,938.53
2023-05-25T08:41:42.103Z,938.50
2023-05-25T08:42:39.408Z,938.53
2023-05-25T08:43:39.409Z,938.58
2023-05-25T08:44:39.435Z,938.56
2023-05-25T08:45:43.673Z,938.51
2023-05-25T08:46:39.574Z,938.58
2023-05-25T08:47:39.486Z,938.54
2023-05-25T08:48:42.317Z,938.57
2023-05-25T08:49:39.555Z,938.59
2023-05-25T08:50:39.501Z,938.60
2023-05-25T08:51:39.614Z,938.61
2023-05-25T08:52:39.528Z,938.63
2023-05-25T08:53:39.550Z,938.62
2023-05-25T08:54:39.555Z,938.65
2023-05-25T08:55:39.573Z,938.65
2023-05-25T08:56:39.687Z,938.63
2023-05-25T08:57:39.619Z,938.63
2023-05-25T08:58:39.622Z,938.64
2023-05-25T08:59:39.618Z,938.62
2023-05-25T09:00:39.629Z,938.62
2023-05-25T09:01:39.662Z,938.63
2023-05-25T09:02:39.675Z,938.70
2023-05-25T09:03:39.757Z,938.66
2023-05-25T09:04:39.697Z,938.67
2023-05-25T09:05:39.707Z,938.72
2023-05-25T09:06:39.817Z,938.73
2023-05-25T09:07:39.732Z,938.70
2023-05-25T09:08:39.737Z,938.72
2023-05-25T09:09:39.821Z,938.71
2023-05-25T09:10:39.763Z,938.72
2023-05-25T09:11:41.204Z,938.74
2023-05-25T09:12:39.924Z,938.74
2023-05-25T09:13:39.824Z,938.75
2023-05-25T09:14:39.836Z,938.75
2023-05-25T09:15:39.832Z,938.78
2023-05-25T09:16:39.893Z,938.75
2023-05-25T09:17:40.016Z,938.81
2023-05-25T09:18:39.875Z,938.80
2023-05-25T09:19:39.887Z,938.81
2023-05-25T09:20:39.958Z,938.87
2023-05-25T09:21:39.916Z,938.85
2023-05-25T09:22:39.935Z,938.87
2023-05-25T09:23:39.942Z,938.87
2023-05-25T09:24:39.960Z,938.89
2023-05-25T09:25:39.969Z,938.90
2023-05-25T09:26:39.984Z,938.86
2023-05-25T09:27:40.010Z,938.89
2023-05-25T09:28:40.004Z,938.92
2023-05-25T09:29:40.144Z,938.96
2023-05-25T09:30:40.036Z,938.96
2023-05-25T09:31:40.121Z,938.99
2023-05-25T09:32:40.084Z,938.98
2023-05-25T09:33:40.073Z,938.98
2023-05-25T09:34:40.181Z,938.97
2023-05-25T09:35:40.113Z,938.97
2023-05-25T09:36:40.195Z,938.97
2023-05-25T09:37:40.378Z,938.98
2023-05-25T09:38:40.450Z,938.97
2023-05-25T09:39:40.240Z,939.07
2023-05-25T09:40:40.164Z,939.02
2023-05-25T09:41:40.184Z,939.03
2023-05-25T09:42:40.210Z,939.05
2023-05-25T09:43:44.958Z,939.03
2023-05-25T09:44:40.217Z,939.10
2023-05-25T09:45:40.256Z,939.06
2023-05-25T09:46:40.452Z,939.08
2023-05-25T09:47:40.283Z,939.05
2023-05-25T09:48:40.276Z,939.08
2023-05-25T09:49:40.294Z,939.07
2023-05-25T09:50:40.303Z,939.12
2023-05-25T09:51:40.319Z,939.12
2023-05-25T09:52:40.428Z,939.16
2023-05-25T09:53:40.339Z,939.14
2023-05-25T09:54:40.350Z,939.11
2023-05-25T09:55:51.968Z,939.13
2023-05-25T09:56:40.382Z,939.18
2023-05-25T09:57:40.388Z,939.13
2023-05-25T09:58:40.398Z,939.11
2023-05-25T09:59:40.417Z,939.11
2023-05-25T10:00:40.430Z,939.11
2023-05-25T10:01:41.906Z,939.15
2023-05-25T10:02:40.513Z,939.17
2023-05-25T10:03:43.814Z,939.18
2023-05-25T10:04:40.630Z,939.21
2023-05-25T10:05:40.495Z,939.25
2023-05-25T10:06:40.501Z,939.18
2023-05-25T10:07:40.518Z,939.22
2023-05-25T10:08:40.534Z,939.22
2023-05-25T10:09:40.536Z,939.23
2023-05-25T10:10:40.561Z,939.26
2023-05-25T10:11:40.574Z,939.29
2023-05-25T10:12:40.593Z,939.29
2023-05-25T10:13:40.592Z,939.27
2023-05-25T10:14:40.610Z,939.29
2023-05-25T10:15:40.632Z,939.33
2023-05-25T10:16:40.642Z,939.32
2023-05-25T10:17:40.692Z,939.34
2023-05-25T10:18:40.661Z,939.32
2023-05-25T10:19:40.675Z,939.32
2023-05-25T10:20:40.730Z,939.34
2023-05-25T10:21:40.703Z,939.38
2023-05-25T10:22:40.716Z,939.40
2023-05-25T10:23:40.730Z,939.36
2023-05-25T10:24:40.738Z,939.41
2023-05-25T10:25:40.750Z,939.43
2023-05-25T10:26:40.767Z,939.47
2023-05-25T10:27:40.875Z,939.46
2023-05-25T10:28:40.798Z,939.49
2023-05-25T10:29:40.811Z,939.52
2023-05-25T10:30:40.819Z,939.50
2023-05-25T10:31:40.831Z,939.52
2023-05-25T10:32:40.902Z,939.55
2023-05-25T10:33:40.976Z,939.59
2023-05-25T10:34:40.876Z,939.56
2023-05-25T10:35:56.225Z,939.58
2023-05-25T10:36:40.895Z,939.58
2023-05-25T10:37:40.912Z,939.58
2023-05-25T10:38:40.957Z,939.63
2023-05-25T10:39:41.034Z,939.57
2023-05-25T10:40:40.948Z,939.66
2023-05-25T10:41:40.954Z,939.63
2023-05-25T10:42:40.967Z,939.66
2023-05-25T10:43:41.058Z,939.65
2023-05-25T10:44:41.010Z,939.70
2023-05-25T10:45:41.005Z,939.72
2023-05-25T10:46:41.069Z,939.71
2023-05-25T10:47:41.077Z,939.71
2023-05-25T10:48:41.051Z,939.75
2023-05-25T10:49:41.091Z,939.74
2023-05-25T10:50:41.880Z,939.77
2023-05-25T10:51:41.089Z,939.79
2023-05-25T10:52:41.104Z,939.79
2023-05-25T10:53:41.114Z,939.82
2023-05-25T10:54:41.128Z,939.84
2023-05-25T10:55:41.138Z,939.81
2023-05-25T10:56:41.157Z,939.86
2023-05-25T10:57:41.261Z,939.82
2023-05-25T10:58:41.172Z,939.83
2023-05-25T10:59:41.186Z,939.91
2023-05-25T11:00:41.310Z,939.87
2023-05-25T11:01:41.352Z,939.90
2023-05-25T11:02:41.270Z,939.92
2023-05-25T11:03:41.358Z,939.89
2023-05-25T11:04:41.345Z,939.94
2023-05-25T11:05:41.284Z,939.96
2023-05-25T11:06:41.282Z,939.96
2023-05-25T11:07:41.287Z,939.98
2023-05-25T11:08:41.304Z,939.99
2023-05-25T11:09:41.414Z,939.99
2023-05-25T11:10:41.335Z,940.01
2023-05-25T11:11:41.337Z,940.09
2023-05-25T11:12:41.354Z,940.02
2023-05-25T11:13:41.580Z,940.03
2023-05-25T11:14:41.489Z,940.07
2023-05-25T11:15:41.482Z,940.08
2023-05-25T11:16:41.434Z,940.11
2023-05-25T11:17:41.444Z,940.08
2023-05-25T11:18:41.453Z,940.10
2023-05-25T11:19:41.450Z,940.12
2023-05-25T11:20:41.537Z,940.07
2023-05-25T11:21:41.494Z,940.13
2023-05-25T11:22:41.484Z,940.18
2023-05-25T11:23:41.513Z,940.17
2023-05-25T11:24:41.618Z,940.16
2023-05-25T11:25:41.570Z,940.17
2023-05-25T11:26:41.559Z,940.19
2023-05-25T11:27:41.568Z,940.22
2023-05-25T11:28:41.565Z,940.19
2023-05-25T11:29:41.596Z,940.21
2023-05-25T11:30:41.670Z,940.21
2023-05-25T11:31:43.705Z,940.20
2023-05-25T11:32:41.635Z,940.22
2023-05-25T11:33:41.630Z,940.27
2023-05-25T11:34:41.652Z,940.25
2023-05-25T11:35:41.689Z,940.22
2023-05-25T11:36:41.695Z,940.31
2023-05-25T11:37:41.725Z,940.29
2023-05-25T11:38:43.557Z,940.32
2023-05-25T11:39:41.704Z,940.37
2023-05-25T11:40:41.716Z,940.34
2023-05-25T11:41:41.841Z,940.35
2023-05-25T11:42:41.748Z,940.39
2023-05-25T11:43:41.756Z,940.36
2023-05-25T11:44:41.776Z,940.39
2023-05-25T11:45:41.784Z,940.42
2023-05-25T11:46:41.938Z,940.41
2023-05-25T11:47:41.860Z,940.42
2023-05-25T11:48:41.822Z,940.45
2023-05-25T11:49:41.958Z,940.45
2023-05-25T11:50:41.855Z,940.46
2023-05-25T11:51:41.869Z,940.51
2023-05-25T11:52:41.990Z,940.52
2023-05-25T11:53:41.920Z,940.54
2023-05-25T11:54:41.930Z,940.54
2023-05-25T11:55:42.425Z,940.58
2023-05-25T11:56:42.004Z,940.61
2023-05-25T11:57:41.954Z,940.56
2023-05-25T11:58:42.059Z,940.58
2023-05-25T11:59:41.966Z,940.58
2023-05-25T12:00:42.229Z,940.59
2023-05-25T12:01:41.994Z,940.63
2023-05-25T12:02:42.130Z,940.63
2023-05-25T12:03:42.069Z,940.65
2023-05-25T12:04:42.203Z,940.64
2023-05-25T12:05:42.082Z,940.66
2023-05-25T12:06:42.068Z,940.66
2023-05-25T12:07:42.087Z,940.66
2023-05-25T12:08:42.085Z,940.68
2023-05-25T12:09:42.126Z,940.68
2023-05-25T12:10:42.201Z,940.67
2023-05-25T12:11:42.123Z,940.67
2023-05-25T12:12:42.154Z,940.67
2023-05-25T12:13:42.142Z,940.72
2023-05-25T12:14:42.153Z,940.70
2023-05-25T12:15:42.261Z,940.71
2023-05-25T12:16:42.319Z,940.70
2023-05-25T12:17:42.217Z,940.70
2023-05-25T12:18:42.215Z,940.73
2023-05-25T12:19:42.232Z,940.70
2023-05-25T12:20:42.505Z,940.76
2023-05-25T12:21:42.242Z,940.71
2023-05-25T12:22:42.263Z,940.78
2023-05-25T12:23:42.266Z,940.73
2023-05-25T12:24:42.298Z,940.73
2023-05-25T12:25:50.245Z,940.74
2023-05-25T12:26:42.308Z,940.76
2023-05-25T12:27:42.422Z,940.74
2023-05-25T12:28:42.342Z,940.73